Terminal Aerodrome Forecast
Issued by NWS

Home | Current Version | Previous Version | Text Only | Print | Product List | Glossary Off
Versions: 1 2 3 4 5 6 7 8 9 10 11 12 13 14 15 16 17 18

000
FTUS43 KICT 251953 AAA
TAFRSL
TAF AMD
KRSL 251953Z 2520/2618 04013KT P6SM VCTS SCT050CB BKN080
      TEMPO 2520/2524 VRB20G35KT 3SM +TSRA OVC060CB
     FM260200 VRB06KT P6SM VCTS SCT050CB BKN080
     FM260900 17007KT P6SM BKN150
     FM261500 19011KT P6SM SCT150=

USA.gov is the U.S. government's official web portal to all federal, state and local government web resources and services.